Time;durP1;ratioP1;P1;durP2;ratioP2;P2;SDS_P1;SDS_P2;PMS_P1;PMS_P2;Temp;Humidity;BMP_temperature;BMP_pressure;BME280_temperature;BME280_humidity;BME280_pressure;Samples;Min_cycle;Max_cycle;Signal;HPM_P1;HPM_P2
2023/10/18 00:01:39;;;;;;;2.17;0.55;;;;;;;13.08;73.60;101165.38;5071097;28;20062;-77
2023/10/18 00:04:05;;;;;;;3.90;0.60;;;;;;;13.08;73.37;101170.78;5059893;28;20178;-77
2023/10/18 00:06:32;;;;;;;4.22;0.73;;;;;;;13.00;73.48;101157.44;5058032;28;20487;-77
2023/10/18 00:08:57;;;;;;;7.13;0.77;;;;;;;13.02;73.60;101171.59;5074029;28;20062;-77
2023/10/18 00:11:28;;;;;;;6.50;1.27;;;;;;;12.94;73.78;101170.72;5054367;28;20048;-77
2023/10/18 00:13:54;;;;;;;1.38;0.50;;;;;;;12.95;74.12;101177.00;5071340;28;20502;-77
2023/10/18 00:16:24;;;;;;;1.90;0.40;;;;;;;12.89;74.57;101178.63;5054665;28;20036;-77
2023/10/18 00:18:49;;;;;;;6.30;0.70;;;;;;;12.85;74.56;101179.25;5070847;28;20326;-77
2023/10/18 00:21:15;;;;;;;2.17;0.47;;;;;;;12.78;74.90;101184.66;5054243;28;20331;-77
2023/10/18 00:23:40;;;;;;;4.18;0.73;;;;;;;12.70;74.53;101182.94;5054169;28;20111;-77
2023/10/18 00:26:07;;;;;;;2.28;0.50;;;;;;;12.54;74.58;101169.81;5054110;28;20494;-77
2023/10/18 00:28:36;;;;;;;3.63;0.60;;;;;;;12.61;74.44;101176.06;5070101;28;20020;-77
2023/10/18 00:31:29;;;;;;;2.65;0.47;;;;;;;12.47;74.25;101168.97;5071817;28;20063;-77
2023/10/18 00:33:54;;;;;;;2.78;0.47;;;;;;;12.48;74.40;101186.81;5049951;28;20041;-77
2023/10/18 00:36:20;;;;;;;4.30;0.57;;;;;;;12.37;74.67;101185.53;5039997;28;20067;-77
2023/10/18 00:38:46;;;;;;;4.22;0.50;;;;;;;12.30;74.70;101189.25;5075925;28;20036;-77
2023/10/18 00:41:16;;;;;;;4.82;0.60;;;;;;;12.18;74.88;101191.69;5037795;28;20071;-77
2023/10/18 00:43:44;;;;;;;2.13;0.55;;;;;;;12.14;74.76;101190.41;5070269;28;20430;-77
2023/10/18 00:46:10;;;;;;;3.45;0.70;;;;;;;12.10;74.58;101202.66;5052963;28;20093;-77
2023/10/18 00:48:36;;;;;;;1.73;0.55;;;;;;;12.09;74.64;101209.91;5069275;28;20028;-77
2023/10/18 00:51:03;;;;;;;3.90;0.60;;;;;;;11.93;74.18;101180.56;5071001;28;20506;-77
2023/10/18 00:53:33;;;;;;;3.42;0.60;;;;;;;11.96;74.34;101199.06;5070046;28;20028;-77
2023/10/18 00:55:59;;;;;;;2.72;0.40;;;;;;;11.78;74.01;101191.41;5054086;28;20068;-77
2023/10/18 00:58:27;;;;;;;2.20;0.40;;;;;;;11.44;74.21;101152.63;5075265;28;20088;-77
2023/10/18 01:00:56;;;;;;;1.63;0.35;;;;;;;11.70;74.50;101218.53;5069884;28;20024;-77
2023/10/18 01:03:30;;;;;;;3.53;0.65;;;;;;;11.62;74.76;101213.28;5069475;28;20241;-77
2023/10/18 01:05:58;;;;;;;3.30;0.43;;;;;;;11.58;74.65;101204.75;5068847;28;20029;-77
2023/10/18 01:08:24;;;;;;;2.55;0.63;;;;;;;11.45;75.13;101208.19;5035443;28;20638;-77
2023/10/18 01:10:51;;;;;;;2.22;0.47;;;;;;;11.50;75.23;101218.41;5035437;28;20085;-77
2023/10/18 01:13:20;;;;;;;1.45;0.38;;;;;;;11.42;75.69;101214.00;5053024;28;20078;-78
2023/10/18 01:15:45;;;;;;;1.50;0.30;;;;;;;11.34;75.60;101211.41;5036987;28;20040;-77
2023/10/18 01:18:12;;;;;;;4.85;0.40;;;;;;;11.33;75.72;101220.53;5072493;28;20036;-78
2023/10/18 01:20:41;;;;;;;2.22;0.30;;;;;;;11.32;76.47;101212.63;5059861;28;20028;-78
2023/10/18 01:23:10;;;;;;;2.40;0.50;;;;;;;11.35;76.25;101217.63;5074891;28;20036;-77
2023/10/18 01:25:35;;;;;;;2.05;0.40;;;;;;;11.22;75.96;101192.25;5072158;28;20106;-78
2023/10/18 01:28:01;;;;;;;1.50;0.32;;;;;;;11.33;75.26;101211.63;5070202;28;20491;-78
2023/10/18 01:30:29;;;;;;;3.15;0.50;;;;;;;11.10;75.19;101188.41;5060753;28;20028;-78
2023/10/18 01:32:54;;;;;;;1.67;0.57;;;;;;;11.31;75.09;101216.38;5072225;28;20486;-78
2023/10/18 01:35:21;;;;;;;3.00;0.50;;;;;;;11.33;75.39;101222.41;5070975;28;20063;-78
2023/10/18 01:37:46;;;;;;;2.47;0.50;;;;;;;11.25;75.64;101221.47;5053180;28;20052;-78
2023/10/18 01:40:23;;;;;;;1.85;0.50;;;;;;;11.23;75.31;101223.56;5053572;28;20106;-77
2023/10/18 01:42:58;;;;;;;1.17;0.30;;;;;;;11.12;75.86;101229.44;5071653;28;20109;-78
2023/10/18 01:45:36;;;;;;;1.70;0.40;;;;;;;11.02;75.59;101224.38;5054446;28;20074;-78
2023/10/18 01:48:04;;;;;;;2.30;0.40;;;;;;;10.82;75.33;101201.78;5070099;28;20039;-78
2023/10/18 01:50:30;;;;;;;1.58;0.50;;;;;;;10.79;76.02;101207.56;5071411;28;20032;-77
2023/10/18 01:52:56;;;;;;;1.35;0.30;;;;;;;10.97;76.03;101236.75;5037404;28;20040;-78
2023/10/18 01:55:23;;;;;;;2.17;0.50;;;;;;;10.88;75.87;101222.56;5071112;28;20074;-78
2023/10/18 01:57:48;;;;;;;2.03;0.38;;;;;;;10.90;75.90;101233.16;5036506;28;20068;-77
2023/10/18 02:00:18;;;;;;;2.25;0.35;;;;;;;10.86;76.11;101231.84;5036370;28;20563;-78
2023/10/18 02:02:46;;;;;;;2.38;0.50;;;;;;;10.74;76.44;101236.91;5071590;28;20031;-77
2023/10/18 02:05:15;;;;;;;0.82;0.35;;;;;;;10.62;76.82;101233.88;5058196;28;20025;-77
2023/10/18 02:07:41;;;;;;;1.67;0.43;;;;;;;10.55;76.77;101241.03;5053930;28;20483;-78
2023/10/18 02:10:07;;;;;;;2.08;0.40;;;;;;;10.55;77.01;101238.34;5069497;28;20380;-78
2023/10/18 02:12:33;;;;;;;1.92;0.30;;;;;;;10.50;77.19;101230.03;5072298;28;20051;-78
2023/10/18 02:15:01;;;;;;;1.63;0.30;;;;;;;10.55;77.22;101239.16;5073067;28;20406;-78
2023/10/18 02:17:27;;;;;;;2.22;0.40;;;;;;;10.42;76.95;101239.00;5073250;28;20024;-78
2023/10/18 02:19:53;;;;;;;2.03;0.45;;;;;;;10.24;78.03;101222.41;5056672;28;20028;-78
2023/10/18 02:22:19;;;;;;;1.33;0.40;;;;;;;10.33;78.14;101251.75;5077988;28;20100;-78
2023/10/18 02:24:45;;;;;;;4.82;0.50;;;;;;;10.18;78.57;101248.19;5077765;28;20082;-77
2023/10/18 02:27:19;;;;;;;1.75;0.40;;;;;;;10.05;78.51;101251.50;5073887;28;20040;-77
2023/10/18 02:29:45;;;;;;;3.10;0.47;;;;;;;10.03;78.65;101244.66;5060101;28;20075;-77
2023/10/18 02:32:23;;;;;;;2.85;0.45;;;;;;;9.88;78.85;101253.53;5056560;28;20035;-78
2023/10/18 02:34:51;;;;;;;3.05;0.50;;;;;;;9.70;79.56;101239.63;5058182;28;20059;-78
2023/10/18 02:37:19;;;;;;;4.28;0.60;;;;;;;9.74;79.40;101256.22;5073316;28;20048;-78
2023/10/18 02:39:49;;;;;;;2.83;0.65;;;;;;;9.63;80.42;101254.78;5072963;28;20052;-77
2023/10/18 02:42:18;;;;;;;2.78;0.55;;;;;;;9.56;79.92;101254.66;5073087;28;20439;-78
2023/10/18 02:44:44;;;;;;;1.25;0.30;;;;;;;9.37;80.59;101245.28;5040558;28;20094;-77
2023/10/18 02:47:16;;;;;;;1.55;0.35;;;;;;;9.33;80.67;101254.69;5056024;28;20048;-78
2023/10/18 02:49:45;;;;;;;1.85;0.50;;;;;;;9.29;81.18;101250.72;5074067;28;20482;-78
2023/10/18 02:52:11;;;;;;;3.20;0.50;;;;;;;9.24;81.23;101249.56;5074090;28;20032;-77
2023/10/18 02:54:39;;;;;;;3.05;0.40;;;;;;;9.22;81.14;101247.06;5055903;28;20052;-77
2023/10/18 02:57:05;;;;;;;1.88;0.30;;;;;;;9.15;81.72;101262.22;5072497;28;20055;-78
2023/10/18 02:59:31;;;;;;;1.42;0.40;;;;;;;9.07;82.11;101259.59;5055844;28;20480;-77
2023/10/18 03:01:57;;;;;;;2.88;0.50;;;;;;;9.03;81.77;101263.66;5055931;28;20575;-78
2023/10/18 03:04:26;;;;;;;1.23;0.52;;;;;;;9.02;82.48;101267.34;5072510;28;20056;-78
2023/10/18 03:06:52;;;;;;;2.65;0.70;;;;;;;8.83;82.64;101248.00;5072217;28;20389;-78
2023/10/18 03:09:27;;;;;;;0.63;0.38;;;;;;;8.96;83.33;101273.44;5073397;28;20383;-78
2023/10/18 03:11:54;;;;;;;1.90;0.40;;;;;;;8.86;83.67;101279.84;5072235;28;20033;-77
2023/10/18 03:14:35;;;;;;;3.45;0.50;;;;;;;8.82;83.93;101272.34;5075872;28;20044;-77
2023/10/18 03:17:11;;;;;;;1.15;0.32;;;;;;;8.78;84.21;101277.22;5076311;28;20032;-77
2023/10/18 03:19:39;;;;;;;1.30;0.30;;;;;;;8.82;84.89;101272.34;5074617;28;20063;-78
2023/10/18 03:22:05;;;;;;;1.58;0.82;;;;;;;8.96;85.33;101281.47;5057706;28;20025;-77
2023/10/18 03:24:30;;;;;;;2.00;0.40;;;;;;;8.86;85.19;101260.22;5060937;28;20028;-77
2023/10/18 03:27:06;;;;;;;2.70;0.50;;;;;;;9.02;85.36;101278.91;5072697;28;20043;-77
2023/10/18 03:29:31;;;;;;;1.65;0.50;;;;;;;9.07;85.45;101271.19;5073243;28;20032;-78
2023/10/18 03:31:57;;;;;;;2.47;0.40;;;;;;;9.04;85.81;101276.03;5055765;28;20177;-78
2023/10/18 03:34:22;;;;;;;2.95;0.50;;;;;;;9.14;85.83;101279.38;5055556;28;20056;-78
2023/10/18 03:36:54;;;;;;;1.13;0.30;;;;;;;9.15;85.18;101270.28;5071579;28;20025;-77
2023/10/18 03:39:21;;;;;;;2.47;0.68;;;;;;;9.19;85.01;101274.28;5071178;28;20028;-78
2023/10/18 03:41:49;;;;;;;2.53;0.50;;;;;;;9.19;85.01;101279.66;5071470;28;20124;-77
2023/10/18 03:44:20;;;;;;;1.70;0.43;;;;;;;9.15;85.32;101278.34;5037848;28;20151;-78
2023/10/18 03:49:16;;;;;;;0.55;0.20;;;;;;;8.92;86.35;101271.09;5073004;28;20021;-78
2023/10/18 03:51:46;;;;;;;0.60;0.40;;;;;;;8.93;87.71;101275.44;5073095;28;20036;-78
2023/10/18 03:54:14;;;;;;;1.85;0.40;;;;;;;9.14;86.41;101279.38;5071462;28;20434;-77
2023/10/18 03:56:42;;;;;;;3.42;0.40;;;;;;;9.22;87.10;101295.41;5070658;28;20048;-78
2023/10/18 03:59:21;;;;;;;2.63;0.50;;;;;;;9.30;85.68;101264.97;5054893;28;20036;-78
2023/10/18 04:04:35;;;;;;;;;;;;;;;9.35;86.43;101282.22;5073582;28;20067;-77
2023/10/18 04:07:17;;;;;;;1.38;0.30;;;;;;;9.30;85.13;101278.38;5077904;28;20290;-78
2023/10/18 04:09:53;;;;;;;0.82;0.30;;;;;;;9.19;85.87;101279.66;5061785;28;20028;-78
2023/10/18 04:12:22;;;;;;;3.10;0.65;;;;;;;9.17;85.25;101277.16;5072560;28;20483;-78
2023/10/18 04:15:00;;;;;;;1.48;0.30;;;;;;;9.09;84.98;101274.50;5039806;28;20036;-78
2023/10/18 04:17:37;;;;;;;4.68;0.93;;;;;;;9.06;84.78;101285.59;5072716;28;20069;-77
2023/10/18 04:20:22;;;;;;;1.60;0.28;;;;;;;9.05;84.81;101283.09;5071618;28;20033;-76
2023/10/18 04:22:49;;;;;;;1.08;0.35;;;;;;;9.00;85.18;101285.47;5073915;28;20024;-78
2023/10/18 04:25:21;;;;;;;0.93;0.30;;;;;;;8.98;85.22;101287.53;5071518;28;20563;-77
2023/10/18 04:27:53;;;;;;;2.17;0.50;;;;;;;8.96;84.99;101290.34;5055912;28;20457;-77
2023/10/18 04:30:22;;;;;;;0.77;0.40;;;;;;;8.97;84.43;101285.81;5073058;28;20076;-77
2023/10/18 04:33:00;;;;;;;2.53;0.50;;;;;;;8.91;84.53;101282.84;5072256;28;20494;-77
2023/10/18 04:35:45;;;;;;;3.22;0.60;;;;;;;8.84;84.95;101279.19;5055063;28;20033;-78
2023/10/18 04:41:42;;;;;;;0.60;0.30;;;;;;;8.74;84.46;101270.53;5077292;28;19962;-77
2023/10/18 04:43:42;;;;;;;0.95;0.45;;;;;;;8.69;84.23;101276.41;5064029;28;20068;-77
2023/10/18 04:46:14;;;;;;;1.38;0.40;;;;;;;8.78;83.87;101296.00;5054240;28;20067;-78
2023/10/18 04:51:44;;;;;;;2.22;0.40;;;;;;;8.44;83.84;101254.25;5071352;28;20090;-77
2023/10/18 04:54:15;;;;;;;0.83;0.33;;;;;;;8.68;83.38;101298.91;5057888;28;20403;-76
2023/10/18 04:56:44;;;;;;;1.42;0.40;;;;;;;8.66;82.84;101295.53;5054688;28;20052;-76
2023/10/18 05:04:32;;;;;;;1.92;0.40;;;;;;;8.40;84.21;101295.81;5071134;28;20032;-77
2023/10/18 05:09:35;;;;;;;1.20;0.40;;;;;;;8.17;83.69;101294.84;5071564;28;20107;-77
2023/10/18 05:12:08;;;;;;;1.33;0.50;;;;;;;8.05;84.47;101301.59;5057887;28;20063;-77
2023/10/18 05:14:49;;;;;;;1.47;0.30;;;;;;;7.91;84.38;101303.09;5091524;28;20029;-77
2023/10/18 05:17:17;;;;;;;1.98;0.38;;;;;;;7.67;83.94;101278.00;5070628;28;20035;-77
2023/10/18 05:19:47;;;;;;;1.42;0.40;;;;;;;7.85;84.82;101309.97;5087566;28;20025;-76
2023/10/18 05:22:25;;;;;;;0.75;0.30;;;;;;;7.91;84.57;101312.00;5075627;28;20347;-77
2023/10/18 05:24:55;;;;;;;1.17;0.40;;;;;;;7.85;84.55;101315.34;5070825;28;20024;-77
2023/10/18 05:27:27;;;;;;;1.23;0.40;;;;;;;7.82;84.35;101317.53;5051419;28;20045;-77
2023/10/18 05:30:14;;;;;;;3.50;0.40;;;;;;;7.78;84.36;101322.34;5086811;28;20032;-77
2023/10/18 05:32:49;;;;;;;0.93;0.35;;;;;;;7.65;83.85;101330.91;5072054;28;20463;-77
2023/10/18 05:35:57;;;;;;;;;;;;;;;7.57;84.95;101332.75;5056790;28;20036;-77
2023/10/18 05:43:12;;;;;;;1.48;0.55;;;;;;;7.46;84.00;101348.13;5070499;28;20036;-77
2023/10/18 05:45:40;;;;;;;;;;;;;;;7.52;84.48;101354.69;5071371;28;20028;-76
2023/10/18 05:48:31;;;;;;;1.75;0.45;;;;;;;7.44;84.16;101354.66;5074488;28;20002;-75
2023/10/18 05:51:01;;;;;;;1.83;0.50;;;;;;;7.37;84.08;101357.16;5081025;28;20041;-77
2023/10/18 05:53:28;;;;;;;0.93;0.40;;;;;;;7.32;84.31;101354.16;5073875;28;20039;-77
2023/10/18 05:55:54;;;;;;;1.65;0.40;;;;;;;7.23;84.62;101353.28;5074422;28;20044;-77
2023/10/18 05:58:26;;;;;;;1.77;0.40;;;;;;;7.22;84.25;101358.81;5075230;28;20148;-77
2023/10/18 06:00:53;;;;;;;0.75;0.40;;;;;;;7.30;83.72;101364.16;5075704;28;20032;-78
2023/10/18 06:03:20;;;;;;;1.63;0.40;;;;;;;7.35;83.87;101369.00;5078605;28;20036;-78
2023/10/18 06:05:46;;;;;;;0.98;0.40;;;;;;;7.37;83.71;101375.06;5079299;28;20036;-77
2023/10/18 06:08:13;;;;;;;1.35;0.40;;;;;;;7.22;83.45;101342.75;5077506;28;20034;-78
2023/10/18 06:10:41;;;;;;;1.38;0.30;;;;;;;7.25;83.66;101375.38;5071762;28;20025;-77
2023/10/18 06:13:09;;;;;;;1.13;0.45;;;;;;;6.74;84.09;101304.97;5066815;28;20028;-78
2023/10/18 06:15:44;;;;;;;1.00;0.30;;;;;;;7.08;84.31;101365.59;5058061;28;20089;-77
2023/10/18 06:18:16;;;;;;;2.03;0.45;;;;;;;7.15;83.71;101385.38;5057925;28;20082;-77
2023/10/18 06:20:44;;;;;;;2.10;0.43;;;;;;;6.97;84.41;101360.56;5058629;28;20028;-77
2023/10/18 06:23:36;;;;;;;0.57;0.20;;;;;;;7.16;84.38;101381.69;5074395;28;20025;-77
2023/10/18 06:25:58;;;;;;;0.75;0.20;;;;;;;7.20;83.92;101398.28;5073204;28;20040;-78
2023/10/18 06:28:25;;;;;;;1.65;0.40;;;;;;;7.17;83.68;101396.75;5089809;28;20105;-77
2023/10/18 06:30:56;;;;;;;0.60;0.40;;;;;;;7.27;83.40;101393.94;5057175;28;20079;-77
2023/10/18 06:33:23;;;;;;;1.10;0.28;;;;;;;7.27;83.70;101405.47;5075403;28;20028;-77
2023/10/18 06:35:52;;;;;;;2.25;0.30;;;;;;;7.22;83.82;101410.50;5073361;28;20034;-77
2023/10/18 06:38:25;;;;;;;2.15;0.65;;;;;;;7.13;83.96;101406.09;5089978;28;20025;-77
2023/10/18 06:41:01;;;;;;;2.17;0.47;;;;;;;7.20;83.82;101414.31;5073479;28;20052;-77
2023/10/18 06:43:26;;;;;;;0.80;0.40;;;;;;;7.19;83.75;101423.38;5074958;28;20075;-77
2023/10/18 06:45:57;;;;;;;0.70;0.40;;;;;;;7.18;83.55;101421.66;5074626;28;20447;-77
2023/10/18 06:48:26;;;;;;;2.03;0.40;;;;;;;7.18;84.05;101427.03;5075969;28;20020;-77
2023/10/18 06:50:53;;;;;;;0.65;0.40;;;;;;;7.15;83.43;101412.16;5073494;28;20093;-77
2023/10/18 06:53:20;;;;;;;0.52;0.35;;;;;;;7.38;83.22;101427.59;5089973;28;20029;-77
2023/10/18 06:55:56;;;;;;;1.10;0.30;;;;;;;7.49;83.02;101430.81;5072627;28;20238;-77
2023/10/18 07:00:51;;;;;;;2.60;0.30;;;;;;;7.68;83.25;101418.97;5074467;28;20021;-77
2023/10/18 07:03:18;;;;;;;1.02;0.32;;;;;;;7.62;83.41;101403.56;5081771;28;20021;-77
2023/10/18 07:05:49;;;;;;;1.17;0.30;;;;;;;7.80;83.10;101419.47;5078495;28;20028;-78
2023/10/18 07:08:29;;;;;;;0.73;0.30;;;;;;;7.80;83.46;101414.13;5077932;28;20458;-77
2023/10/18 07:10:56;;;;;;;2.50;0.45;;;;;;;7.95;82.68;101419.69;5065745;28;20055;-77
2023/10/18 07:13:32;;;;;;;0.75;0.30;;;;;;;8.19;82.74;101433.06;5068187;28;20037;-77
2023/10/18 07:16:05;;;;;;;0.80;0.35;;;;;;;8.29;82.64;101434.75;5080877;28;20052;-77
2023/10/18 07:18:33;;;;;;;0.52;0.22;;;;;;;8.28;81.67;101415.16;5078864;28;20387;-77
2023/10/18 07:21:09;;;;;;;2.65;0.45;;;;;;;8.55;82.08;101437.28;5073873;28;20028;-77
2023/10/18 07:23:39;;;;;;;1.58;0.40;;;;;;;8.63;81.91;101439.91;5065131;28;20032;-77
2023/10/18 07:26:13;;;;;;;1.90;0.30;;;;;;;8.75;81.92;101445.78;5077860;28;20364;-78
2023/10/18 07:28:40;;;;;;;0.50;0.30;;;;;;;8.86;81.37;101448.91;5089557;28;20032;-77
2023/10/18 07:31:10;;;;;;;1.75;0.30;;;;;;;8.81;80.85;101419.09;5089374;28;20024;-77
2023/10/18 07:33:42;;;;;;;1.73;0.30;;;;;;;9.02;80.58;101431.94;5073115;28;20051;-77
2023/10/18 07:36:09;;;;;;;2.08;0.40;;;;;;;9.24;79.80;101454.50;5074334;28;20036;-77
2023/10/18 07:38:47;;;;;;;0.93;0.50;;;;;;;9.34;78.89;101457.81;5074306;28;20490;-77
2023/10/18 07:41:15;;;;;;;1.48;0.32;;;;;;;9.38;78.84;101451.06;5074412;28;20468;-77
2023/10/18 07:43:44;;;;;;;1.48;0.30;;;;;;;9.23;78.04;101441.25;5075953;28;20028;-77
2023/10/18 07:46:19;;;;;;;0.65;0.30;;;;;;;9.34;78.21;101462.34;5074912;28;20021;-78
2023/10/18 07:48:48;;;;;;;2.58;0.40;;;;;;;9.34;78.56;101463.19;5088654;28;20024;-77
2023/10/18 07:51:24;;;;;;;0.90;0.40;;;;;;;9.34;78.01;101460.50;5071560;28;20028;-78
2023/10/18 07:53:54;;;;;;;0.98;0.30;;;;;;;9.53;77.14;101467.28;5074000;28;20025;-78
2023/10/18 07:56:31;;;;;;;0.82;0.40;;;;;;;9.58;76.81;101472.97;5077631;28;20139;-78
2023/10/18 08:04:27;;;;;;;2.15;0.35;;;;;;;9.67;75.16;101470.22;5071782;28;20411;-78
2023/10/18 08:06:53;;;;;;;0.30;0.30;;;;;;;9.74;74.74;101450.53;5072458;28;20048;-77
2023/10/18 08:09:20;;;;;;;1.08;0.20;;;;;;;9.90;74.96;101465.72;5055278;28;20490;-78
2023/10/18 08:11:47;;;;;;;1.80;0.30;;;;;;;10.04;74.24;101472.19;5073593;28;20081;-78
2023/10/18 08:14:24;;;;;;;0.40;0.15;;;;;;;9.64;73.95;101410.47;5071778;28;20105;-78
2023/10/18 08:16:56;;;;;;;0.47;0.25;;;;;;;9.90;73.13;101471.09;5072619;28;20028;-77
2023/10/18 08:19:25;;;;;;;1.58;0.20;;;;;;;9.79;72.98;101461.59;5088145;28;20480;-77
2023/10/18 08:22:21;;;;;;;0.32;0.20;;;;;;;9.82;72.63;101441.59;5070188;28;20411;-77
2023/10/18 08:24:49;;;;;;;2.00;0.40;;;;;;;10.07;72.00;101477.22;5057450;28;20107;-77
2023/10/18 08:27:14;;;;;;;0.68;0.30;;;;;;;10.03;72.31;101473.19;5072419;28;20035;-77
2023/10/18 08:29:41;;;;;;;0.65;0.30;;;;;;;10.03;72.23;101478.56;5054201;28;20399;-77
2023/10/18 08:32:14;;;;;;;0.35;0.10;;;;;;;10.14;71.66;101486.22;5070736;28;20035;-78
2023/10/18 08:34:41;;;;;;;0.50;0.20;;;;;;;10.00;71.80;101486.97;5070737;28;20437;-77
2023/10/18 08:37:10;;;;;;;1.77;0.22;;;;;;;10.05;71.07;101479.22;5072028;28;20491;-78
2023/10/18 08:39:39;;;;;;;0.15;0.10;;;;;;;10.09;71.97;101475.16;5072711;28;20029;-77
2023/10/18 08:42:10;;;;;;;2.08;0.20;;;;;;;10.07;70.91;101443.09;5072773;28;20054;-77
2023/10/18 08:44:38;;;;;;;2.03;0.30;;;;;;;10.25;69.97;101453.50;5071780;28;20498;-77
2023/10/18 08:49:44;;;;;;;0.73;0.32;;;;;;;10.28;70.20;101455.03;5076311;28;20028;-77
2023/10/18 08:52:10;;;;;;;2.30;0.30;;;;;;;10.48;69.77;101496.56;5072796;28;20384;-77
2023/10/18 08:54:41;;;;;;;0.55;0.30;;;;;;;10.49;70.37;101460.56;5053781;28;20119;-77
2023/10/18 08:57:11;;;;;;;1.67;0.35;;;;;;;10.70;69.58;101481.41;5071910;28;20106;-77
2023/10/18 08:59:45;;;;;;;1.45;0.40;;;;;;;10.79;69.84;101477.63;5072277;28;20036;-77
2023/10/18 09:02:18;;;;;;;1.73;0.40;;;;;;;10.89;69.96;101487.25;5072182;28;20032;-77
2023/10/18 09:04:55;;;;;;;2.60;0.35;;;;;;;10.81;68.40;101490.88;5071717;28;20033;-77
2023/10/18 09:09:57;;;;;;;0.65;0.22;;;;;;;10.45;69.72;101482.63;5071574;28;20032;-77
2023/10/18 09:15:25;;;;;;;0.73;0.30;;;;;;;10.79;68.86;101485.69;5070723;28;20101;-77
2023/10/18 09:17:45;;;;;;;1.02;0.28;;;;;;;10.76;68.46;101486.06;5057103;28;20476;-77
2023/10/18 09:20:10;;;;;;;0.80;0.30;;;;;;;11.00;67.89;101479.56;5071583;28;20036;-77
2023/10/18 09:22:38;;;;;;;0.77;0.25;;;;;;;11.11;67.94;101485.50;5054411;28;20412;-77
2023/10/18 09:25:05;;;;;;;0.93;0.30;;;;;;;11.19;67.66;101458.47;5070728;28;20036;-78
2023/10/18 09:27:30;;;;;;;1.10;0.30;;;;;;;11.46;67.59;101478.53;5053974;28;20028;-77
2023/10/18 09:29:55;;;;;;;0.20;0.20;;;;;;;11.28;67.76;101492.38;5070101;28;20035;-77
2023/10/18 09:32:33;;;;;;;0.68;0.13;;;;;;;11.36;67.21;101483.38;5086740;28;20040;-77
2023/10/18 09:35:08;;;;;;;0.50;0.30;;;;;;;11.45;66.73;101479.53;5089026;28;20033;-77
2023/10/18 09:37:36;;;;;;;0.20;0.20;;;;;;;11.34;67.21;101470.06;5071861;28;20035;-77
2023/10/18 09:40:03;;;;;;;0.90;0.20;;;;;;;11.31;66.72;101480.38;5070410;28;20411;-77
2023/10/18 09:42:30;;;;;;;1.02;0.30;;;;;;;11.38;65.78;101478.63;5074202;28;20028;-77
2023/10/18 09:44:55;;;;;;;1.75;0.40;;;;;;;11.06;65.79;101448.38;5071460;28;20035;-77
2023/10/18 09:47:23;;;;;;;1.05;0.50;;;;;;;11.14;66.20;101480.59;5054556;28;20024;-77
2023/10/18 09:50:06;;;;;;;0.70;0.30;;;;;;;11.33;65.11;101478.34;5053369;28;20033;-77
2023/10/18 09:52:47;;;;;;;0.75;0.30;;;;;;;11.16;65.43;101437.28;5070212;28;20047;-77
2023/10/18 09:55:17;;;;;;;0.70;0.30;;;;;;;11.29;65.18;101441.00;5055679;28;20028;-77
2023/10/18 09:57:49;;;;;;;0.70;0.50;;;;;;;11.60;65.31;101461.47;5086383;28;20076;-77
2023/10/18 10:00:16;;;;;;;0.77;0.30;;;;;;;11.49;65.57;101454.72;5053728;28;20062;-77
2023/10/18 10:02:52;;;;;;;1.58;0.20;;;;;;;11.46;65.77;101457.78;5086414;28;20515;-77
2023/10/18 10:05:26;;;;;;;0.40;0.20;;;;;;;11.46;66.00;101452.41;5069714;28;20029;-77
2023/10/18 10:07:55;;;;;;;0.20;0.20;;;;;;;11.17;66.06;101425.50;5069679;28;20085;-77
2023/10/18 10:10:43;;;;;;;3.85;0.30;;;;;;;11.50;66.22;101461.78;5071766;28;20017;-77
2023/10/18 10:13:13;;;;;;;0.60;0.20;;;;;;;11.59;65.01;101461.66;5070702;28;20025;-77
2023/10/18 10:15:39;;;;;;;0.60;0.30;;;;;;;11.45;65.83;101434.53;5071188;28;20437;-77
2023/10/18 10:18:09;;;;;;;2.10;0.35;;;;;;;11.76;65.58;101460.41;5069886;28;20030;-78
2023/10/18 10:20:40;;;;;;;0.77;0.30;;;;;;;11.87;65.45;101464.50;5069763;28;20028;-77
2023/10/18 10:23:14;;;;;;;1.00;0.20;;;;;;;11.99;65.05;101462.97;5053872;28;20028;-77
2023/10/18 10:25:48;;;;;;;0.63;0.35;;;;;;;11.86;65.40;101463.66;5053865;28;20036;-78
2023/10/18 10:28:47;;;;;;;0.63;0.20;;;;;;;12.05;64.01;101456.78;5073856;28;20034;-77
2023/10/18 10:31:22;;;;;;;0.40;0.20;;;;;;;12.30;64.03;101464.50;5057127;28;20060;-78
2023/10/18 10:34:06;;;;;;;0.40;0.20;;;;;;;12.12;63.87;101452.31;5069757;28;20048;-77
2023/10/18 10:36:35;;;;;;;1.48;0.20;;;;;;;12.19;64.06;101466.69;5056086;28;20040;-77
2023/10/18 10:39:02;;;;;;;0.75;0.28;;;;;;;12.00;64.06;101440.34;5089663;28;20462;-77
2023/10/18 10:41:31;;;;;;;0.43;0.20;;;;;;;12.38;63.70;101462.50;5076369;28;20024;-77
2023/10/18 10:44:30;;;;;;;0.45;0.25;;;;;;;12.45;63.61;101476.06;5075032;28;20021;-77
2023/10/18 10:47:30;;;;;;;1.58;0.30;;;;;;;12.43;62.98;101464.59;5076430;28;20055;-77
2023/10/18 10:50:00;;;;;;;1.10;0.30;;;;;;;12.42;64.80;101455.69;5076982;28;20096;-76
2023/10/18 10:52:30;;;;;;;0.50;0.30;;;;;;;12.31;64.89;101455.38;5074041;28;20059;-77
2023/10/18 10:55:16;;;;;;;0.60;0.30;;;;;;;11.96;64.79;101417.50;5085457;28;20028;-77
2023/10/18 10:57:46;;;;;;;1.25;0.30;;;;;;;12.33;65.09;101456.84;5073191;28;20238;-77
2023/10/18 11:03:54;;;;;;;0.63;0.30;;;;;;;12.53;63.81;101450.78;5039984;28;20123;-77
2023/10/18 11:06:32;;;;;;;0.82;0.30;;;;;;;12.78;64.00;101451.13;5061098;28;20024;-77
2023/10/18 11:08:58;;;;;;;0.50;0.20;;;;;;;12.90;64.12;101453.09;5073413;28;20459;-77
2023/10/18 11:11:27;;;;;;;1.23;0.30;;;;;;;12.67;64.02;101456.06;5089568;28;20060;-77
2023/10/18 11:13:53;;;;;;;0.25;0.22;;;;;;;12.93;63.16;101454.56;5072675;28;20037;-77
2023/10/18 11:16:22;;;;;;;0.73;0.30;;;;;;;13.06;63.20;101453.81;5073708;28;20027;-77
2023/10/18 11:18:52;;;;;;;0.40;0.20;;;;;;;13.04;63.39;101461.28;5073405;28;20032;-78
2023/10/18 11:21:21;;;;;;;1.92;0.38;;;;;;;12.97;63.66;101458.53;5076238;28;20082;-77
2023/10/18 11:23:57;;;;;;;1.40;0.45;;;;;;;13.04;63.23;101461.28;5059929;28;20036;-77
2023/10/18 11:26:25;;;;;;;1.77;0.30;;;;;;;13.12;62.27;101445.75;5073286;28;20031;-77
2023/10/18 11:28:59;;;;;;;0.50;0.30;;;;;;;13.21;62.33;101448.25;5072977;28;20027;-77
2023/10/18 11:31:29;;;;;;;0.40;0.30;;;;;;;13.01;62.85;101446.28;5056115;28;20029;-78
2023/10/18 11:34:05;;;;;;;1.23;0.40;;;;;;;13.10;62.56;101457.78;5072019;28;20503;-77
2023/10/18 11:36:32;;;;;;;2.15;0.20;;;;;;;13.33;61.86;101457.50;5072953;28;20067;-77
2023/10/18 11:39:18;;;;;;;1.52;0.30;;;;;;;13.38;61.74;101439.66;5089296;28;20071;-77
2023/10/18 11:41:44;;;;;;;0.85;0.38;;;;;;;13.39;62.15;101437.78;5061379;28;20024;-77
2023/10/18 11:44:14;;;;;;;1.00;0.45;;;;;;;13.30;62.17;101450.63;5072116;28;20551;-77
2023/10/18 11:46:56;;;;;;;1.25;0.40;;;;;;;13.42;61.91;101436.56;5088857;28;20041;-77
2023/10/18 11:49:32;;;;;;;0.90;0.40;;;;;;;13.37;62.07;101431.75;5072559;28;20483;-77
2023/10/18 11:51:58;;;;;;;1.17;0.38;;;;;;;13.53;61.80;101441.38;5073344;28;20510;-77
2023/10/18 11:54:34;;;;;;;0.30;0.20;;;;;;;13.27;62.69;101445.63;5088421;28;20028;-77
2023/10/18 11:57:01;;;;;;;1.00;0.20;;;;;;;13.48;62.53;101441.97;5071519;28;20056;-77
2023/10/18 11:59:29;;;;;;;0.65;0.30;;;;;;;13.45;62.32;101439.69;5073015;28;20040;-77
2023/10/18 12:02:04;;;;;;;0.30;0.20;;;;;;;13.55;62.15;101442.84;5088373;28;20029;-77
2023/10/18 12:04:37;;;;;;;0.60;0.30;;;;;;;13.39;62.92;101427.81;5071339;28;20024;-77
2023/10/18 12:07:03;;;;;;;0.57;0.20;;;;;;;13.49;63.02;101434.69;5071553;28;20112;-77
2023/10/18 12:09:31;;;;;;;0.40;0.20;;;;;;;13.45;63.17;101425.34;5071303;28;20028;-77
2023/10/18 12:11:57;;;;;;;0.47;0.22;;;;;;;13.58;62.38;101418.09;5072171;28;20487;-77
2023/10/18 12:14:23;;;;;;;1.35;0.20;;;;;;;13.49;62.10;101422.00;5054846;28;20032;-76
2023/10/18 12:16:54;;;;;;;0.43;0.20;;;;;;;13.51;61.60;101427.22;5072936;28;20032;-77
2023/10/18 12:19:20;;;;;;;0.98;0.20;;;;;;;13.41;61.71;101424.91;5072215;28;20139;-77
2023/10/18 12:21:48;;;;;;;0.50;0.28;;;;;;;13.42;61.76;101423.88;5071772;28;20032;-76
2023/10/18 12:24:15;;;;;;;0.20;0.10;;;;;;;13.49;61.30;101404.97;5055380;28;20487;-77
2023/10/18 12:26:41;;;;;;;1.35;0.20;;;;;;;13.39;61.45;101422.41;5071490;28;20033;-77
2023/10/18 12:29:06;;;;;;;0.43;0.20;;;;;;;13.46;61.22;101417.00;5096587;28;20446;-77